Time;durP1;ratioP1;P1;durP2;ratioP2;P2;SDS_P1;SDS_P2;PMS_P1;PMS_P2;Temp;Humidity;BMP_temperature;BMP_pressure;BME280_temperature;BME280_humidity;BME280_pressure;Samples;Min_cycle;Max_cycle;Signal;HPM_P1;HPM_P2
2023/07/25 00:01:47;;;;;;;8.45;5.70;;;;;;;22.81;56.51;99461.81;1713460;83;21103;-65
2023/07/25 00:04:16;;;;;;;7.90;5.62;;;;;;;22.84;56.35;99460.37;1713336;84;21042;-65
2023/07/25 00:06:45;;;;;;;7.72;5.33;;;;;;;22.87;55.89;99453.63;1713391;83;21150;-64
2023/07/25 00:09:14;;;;;;;8.58;5.83;;;;;;;22.92;55.09;99448.53;1713568;84;21074;-64
2023/07/25 00:11:44;;;;;;;11.68;5.53;;;;;;;22.97;54.93;99452.64;1713237;84;21019;-65
2023/07/25 00:14:14;;;;;;;9.23;6.28;;;;;;;23.00;54.41;99447.27;1712848;82;21070;-64
2023/07/25 00:16:44;;;;;;;9.83;5.25;;;;;;;23.05;54.12;99443.00;1713464;84;21126;-65
2023/07/25 00:19:14;;;;;;;9.78;5.55;;;;;;;23.09;53.88;99440.43;1713225;83;21478;-64
2023/07/25 00:21:43;;;;;;;8.13;6.08;;;;;;;23.12;53.63;99434.23;1713416;84;21129;-65
2023/07/25 00:24:13;;;;;;;7.42;5.50;;;;;;;23.13;53.21;99437.86;1713444;82;21052;-65
2023/07/25 00:26:42;;;;;;;8.73;5.17;;;;;;;23.13;53.63;99438.69;1713344;84;21122;-64
2023/07/25 00:29:11;;;;;;;8.08;5.37;;;;;;;23.14;53.77;99433.93;1713214;84;21106;-65
2023/07/25 00:31:40;;;;;;;11.12;5.70;;;;;;;23.13;54.11;99427.51;1713373;84;21051;-65
2023/07/25 00:34:10;;;;;;;7.92;5.70;;;;;;;23.13;54.34;99430.88;1713468;84;21086;-65
2023/07/25 00:36:39;;;;;;;8.40;5.33;;;;;;;23.12;54.06;99423.63;1713333;84;21070;-63
2023/07/25 00:39:10;;;;;;;8.50;5.62;;;;;;;23.09;53.45;99423.09;1713191;82;21082;-66
2023/07/25 00:41:40;;;;;;;6.90;5.33;;;;;;;23.07;53.29;99416.98;1713448;83;21090;-65
2023/07/25 00:44:08;;;;;;;8.33;5.67;;;;;;;23.07;53.40;99410.00;1713088;84;21130;-67
2023/07/25 00:46:37;;;;;;;8.53;5.83;;;;;;;23.07;53.22;99416.98;1713086;84;21486;-66
2023/07/25 00:49:06;;;;;;;8.73;5.87;;;;;;;23.06;53.08;99411.13;1713351;84;21062;-65
2023/07/25 00:51:36;;;;;;;8.50;5.45;;;;;;;23.03;52.55;99408.95;1713315;84;21323;-65
2023/07/25 00:54:06;;;;;;;8.00;5.67;;;;;;;23.01;52.34;99404.23;1713388;84;21075;-65
2023/07/25 00:56:35;;;;;;;8.38;5.85;;;;;;;22.98;52.32;99411.83;1713225;84;21129;-66
2023/07/25 00:59:04;;;;;;;9.73;6.00;;;;;;;22.96;52.25;99410.47;1713487;84;21505;-65
2023/07/25 01:01:33;;;;;;;10.58;5.80;;;;;;;22.91;52.20;99418.36;1711210;83;21524;-65
2023/07/25 01:04:02;;;;;;;8.68;5.90;;;;;;;22.89;52.13;99414.21;1710575;82;21126;-64
2023/07/25 01:06:32;;;;;;;7.72;5.55;;;;;;;22.86;52.09;99415.64;1710556;84;21117;-66
2023/07/25 01:09:01;;;;;;;8.90;5.42;;;;;;;22.86;52.17;99417.61;1710875;84;21046;-66
2023/07/25 01:11:31;;;;;;;6.70;5.30;;;;;;;22.81;52.25;99422.70;1710874;84;21102;-65
2023/07/25 01:14:00;;;;;;;7.03;5.37;;;;;;;22.76;52.47;99416.60;1710735;84;21458;-65
2023/07/25 01:16:30;;;;;;;9.43;5.80;;;;;;;22.74;52.46;99418.00;1710928;82;21062;-64
2023/07/25 01:19:00;;;;;;;10.72;5.97;;;;;;;22.69;52.49;99419.48;1710720;83;21121;-65
2023/07/25 01:21:29;;;;;;;8.78;5.87;;;;;;;22.63;52.67;99420.12;1710871;84;21066;-65
2023/07/25 01:24:03;;;;;;;9.45;5.90;;;;;;;22.57;52.78;99411.55;1710910;84;21653;-65
2023/07/25 01:26:32;;;;;;;8.50;5.95;;;;;;;22.50;53.13;99411.09;1710650;83;21079;-65
2023/07/25 01:29:00;;;;;;;8.50;5.42;;;;;;;22.46;53.25;99412.82;1710888;84;21038;-65
2023/07/25 01:31:29;;;;;;;10.72;5.60;;;;;;;22.41;53.57;99419.30;1710906;82;21007;-65
2023/07/25 01:33:59;;;;;;;9.63;5.95;;;;;;;22.37;53.51;99406.25;1690833;84;21062;-65
2023/07/25 01:36:28;;;;;;;11.43;6.03;;;;;;;22.34;53.47;99405.45;1710750;84;21011;-65
2023/07/25 01:38:57;;;;;;;9.93;6.42;;;;;;;22.30;53.62;99409.41;1711011;84;21039;-65
2023/07/25 01:41:26;;;;;;;8.68;5.78;;;;;;;22.26;53.76;99408.34;1710744;84;21687;-65
2023/07/25 01:43:55;;;;;;;8.98;5.87;;;;;;;22.22;53.94;99407.84;1691230;84;21118;-66
2023/07/25 01:46:24;;;;;;;9.95;5.55;;;;;;;22.19;54.02;99414.02;1710735;83;21070;-65
2023/07/25 01:48:53;;;;;;;8.73;5.80;;;;;;;22.13;54.18;99410.47;1710817;84;21498;-65
2023/07/25 01:51:23;;;;;;;7.97;5.65;;;;;;;22.05;54.30;99413.88;1710701;84;21096;-65
2023/07/25 01:53:53;;;;;;;9.03;5.47;;;;;;;22.00;54.47;99415.30;1710703;84;21038;-64
2023/07/25 01:56:22;;;;;;;7.97;5.67;;;;;;;21.99;54.69;99416.44;1710684;82;21034;-65
2023/07/25 01:58:51;;;;;;;13.08;6.05;;;;;;;21.98;54.82;99410.59;1710691;84;21102;-65
2023/07/25 02:01:20;;;;;;;11.28;5.60;;;;;;;21.96;54.77;99408.66;1714391;83;21122;-65
2023/07/25 02:03:50;;;;;;;9.65;5.97;;;;;;;21.93;54.72;99410.09;1715838;83;21071;-65
2023/07/25 02:06:18;;;;;;;9.80;5.55;;;;;;;21.88;54.87;99410.70;1710642;84;21054;-63
2023/07/25 02:08:47;;;;;;;12.25;6.20;;;;;;;21.82;55.00;99414.95;1710929;84;21074;-63
2023/07/25 02:11:22;;;;;;;10.15;6.00;;;;;;;21.77;55.09;99419.75;1710926;84;21078;-63
2023/07/25 02:13:53;;;;;;;10.28;5.65;;;;;;;21.72;55.15;99414.23;1710968;84;21050;-63
2023/07/25 02:16:22;;;;;;;11.43;6.20;;;;;;;21.68;55.40;99419.56;1710698;84;21018;-63
2023/07/25 02:18:52;;;;;;;10.48;5.75;;;;;;;21.66;55.62;99413.45;1710828;84;21042;-64
2023/07/25 02:21:22;;;;;;;9.03;6.28;;;;;;;21.64;55.58;99407.34;1710810;84;21098;-63
2023/07/25 02:23:51;;;;;;;9.23;5.87;;;;;;;21.59;55.68;99409.34;1710914;84;21094;-64
2023/07/25 02:26:19;;;;;;;11.28;5.78;;;;;;;21.58;55.79;99403.51;1710744;83;21046;-65
2023/07/25 02:28:49;;;;;;;10.08;6.30;;;;;;;21.56;55.83;99407.98;1710960;84;21050;-64
2023/07/25 02:31:18;;;;;;;8.58;5.87;;;;;;;21.56;55.98;99401.58;1710708;84;21478;-63
2023/07/25 02:33:46;;;;;;;10.70;5.97;;;;;;;21.54;55.87;99400.48;1710646;84;21086;-65
2023/07/25 02:36:16;;;;;;;11.43;6.50;;;;;;;21.52;55.94;99406.91;1710829;84;21078;-65
2023/07/25 02:38:45;;;;;;;9.55;5.70;;;;;;;21.53;55.95;99409.13;1711038;84;21102;-65
2023/07/25 02:41:16;;;;;;;13.03;6.20;;;;;;;21.51;55.98;99410.82;1710850;84;21047;-64
2023/07/25 02:43:45;;;;;;;8.60;6.00;;;;;;;21.50;56.00;99398.01;1690941;84;21195;-64
2023/07/25 02:46:14;;;;;;;9.55;5.67;;;;;;;21.49;56.16;99397.17;1691161;84;21055;-65
2023/07/25 02:48:43;;;;;;;10.65;6.17;;;;;;;21.49;56.19;99393.56;1710694;84;21499;-64
2023/07/25 02:51:13;;;;;;;8.88;5.83;;;;;;;21.49;56.12;99393.56;1710865;84;21082;-65
2023/07/25 02:53:42;;;;;;;7.92;5.67;;;;;;;21.48;56.34;99389.11;1710714;83;21058;-64
2023/07/25 02:56:12;;;;;;;11.38;6.10;;;;;;;21.49;56.37;99393.56;1710698;83;21066;-64
2023/07/25 02:58:40;;;;;;;10.60;6.40;;;;;;;21.49;56.41;99390.21;1710775;83;21051;-64
2023/07/25 03:01:10;;;;;;;9.00;6.28;;;;;;;21.48;56.42;99387.16;1710590;83;21086;-64
2023/07/25 03:03:38;;;;;;;9.78;6.05;;;;;;;21.47;56.38;99379.09;1710882;84;21055;-64
2023/07/25 03:06:07;;;;;;;10.68;5.72;;;;;;;21.47;56.48;99381.88;1710627;83;21086;-68
2023/07/25 03:08:36;;;;;;;9.30;5.87;;;;;;;21.50;56.53;99384.08;1710611;83;21062;-64
2023/07/25 03:11:07;;;;;;;8.88;6.03;;;;;;;21.51;56.60;99387.96;1710699;84;21098;-63
2023/07/25 03:13:36;;;;;;;10.68;5.95;;;;;;;21.53;56.68;99381.27;1710744;82;21086;-63
2023/07/25 03:16:05;;;;;;;9.08;6.72;;;;;;;21.53;56.68;99387.67;1710748;84;21259;-64
2023/07/25 03:18:35;;;;;;;11.70;6.28;;;;;;;21.54;56.71;99395.47;1710902;84;21070;-64
2023/07/25 03:21:04;;;;;;;8.65;6.22;;;;;;;21.56;57.06;99386.24;1710863;83;21035;-64
2023/07/25 03:23:33;;;;;;;10.25;6.12;;;;;;;21.57;57.23;99385.12;1710673;84;21090;-64
2023/07/25 03:26:03;;;;;;;11.35;6.20;;;;;;;21.58;57.00;99377.02;1710649;83;21038;-65
2023/07/25 03:28:32;;;;;;;9.43;6.20;;;;;;;21.57;57.04;99377.59;1710405;83;21051;-64
2023/07/25 03:31:04;;;;;;;8.53;5.60;;;;;;;21.59;57.08;99378.13;1710658;84;21494;-63
2023/07/25 03:33:33;;;;;;;9.03;5.85;;;;;;;21.63;57.08;99382.55;1710655;84;21469;-64
2023/07/25 03:36:04;;;;;;;9.73;6.17;;;;;;;21.64;56.97;99369.70;1710906;83;21067;-65
2023/07/25 03:38:33;;;;;;;8.80;6.05;;;;;;;21.66;57.01;99370.23;1710647;83;21075;-64
2023/07/25 03:41:01;;;;;;;7.75;6.03;;;;;;;21.68;57.00;99361.02;1710916;84;21070;-63
2023/07/25 03:43:31;;;;;;;11.85;6.42;;;;;;;21.72;56.92;99351.49;1710655;84;21082;-65
2023/07/25 03:45:59;;;;;;;10.98;6.10;;;;;;;21.75;56.87;99348.94;1710934;83;21059;-66
2023/07/25 03:48:28;;;;;;;10.03;5.72;;;;;;;21.77;56.87;99341.11;1710929;84;21034;-65
2023/07/25 03:50:59;;;;;;;10.35;6.45;;;;;;;21.81;56.88;99338.55;1710529;84;21075;-65
2023/07/25 03:53:27;;;;;;;10.45;6.47;;;;;;;21.84;57.02;99341.58;1710868;84;21062;-63
2023/07/25 03:55:59;;;;;;;11.75;6.40;;;;;;;21.89;56.96;99349.05;1710712;83;21455;-64
2023/07/25 03:58:28;;;;;;;11.08;5.97;;;;;;;21.94;56.91;99352.34;1710905;83;21074;-62
2023/07/25 04:00:57;;;;;;;12.47;6.60;;;;;;;21.96;56.87;99355.66;1710979;83;21074;-62
2023/07/25 04:03:27;;;;;;;10.85;6.00;;;;;;;21.99;56.96;99364.83;1716374;83;21078;-64
2023/07/25 04:05:56;;;;;;;10.80;6.83;;;;;;;22.02;56.95;99366.45;1718223;83;21110;-64
2023/07/25 04:08:26;;;;;;;9.10;6.45;;;;;;;22.04;56.84;99367.59;1718293;83;21082;-64
2023/07/25 04:10:55;;;;;;;8.80;6.17;;;;;;;22.04;56.84;99359.22;1718208;83;21847;-64
2023/07/25 04:13:23;;;;;;;9.73;5.92;;;;;;;22.06;56.92;99351.38;1718331;83;21031;-64
2023/07/25 04:15:52;;;;;;;11.18;6.55;;;;;;;22.05;57.01;99342.18;1718162;83;21086;-64
2023/07/25 04:18:23;;;;;;;9.33;5.97;;;;;;;22.05;56.97;99336.60;1718009;83;21015;-65
2023/07/25 04:20:51;;;;;;;10.90;6.22;;;;;;;22.05;57.01;99338.00;1718026;83;21058;-64
2023/07/25 04:23:22;;;;;;;9.25;5.85;;;;;;;22.05;57.18;99342.18;1718249;83;21085;-65
2023/07/25 04:25:50;;;;;;;7.55;6.17;;;;;;;22.06;57.34;99341.61;1718222;83;21070;-65
2023/07/25 04:28:19;;;;;;;12.53;7.50;;;;;;;22.05;57.37;99354.73;1718100;83;21070;-66
2023/07/25 04:30:48;;;;;;;8.78;6.25;;;;;;;22.06;57.46;99365.33;1717990;83;21074;-63
2023/07/25 04:33:18;;;;;;;14.60;6.15;;;;;;;22.04;57.46;99355.03;1718040;83;21045;-64
2023/07/25 04:35:46;;;;;;;9.20;6.25;;;;;;;22.05;57.60;99360.87;1718111;83;21082;-64
2023/07/25 04:38:16;;;;;;;8.70;6.40;;;;;;;22.03;57.72;99354.20;1717997;83;21093;-65
2023/07/25 04:40:46;;;;;;;10.50;6.83;;;;;;;22.04;57.89;99357.26;1717994;83;21098;-64
2023/07/25 04:43:15;;;;;;;13.30;6.53;;;;;;;22.07;58.06;99348.86;1718228;83;21070;-64
2023/07/25 04:45:44;;;;;;;11.38;6.85;;;;;;;22.10;58.06;99355.23;1718390;83;21314;-64
2023/07/25 04:48:15;;;;;;;10.48;6.62;;;;;;;22.12;57.93;99358.02;1717056;82;21043;-64
2023/07/25 04:50:43;;;;;;;12.60;6.58;;;;;;;22.15;58.11;99362.17;1718040;83;21528;-63
2023/07/25 04:53:13;;;;;;;11.22;6.87;;;;;;;22.19;58.11;99356.26;1718249;83;21050;-63
2023/07/25 04:55:41;;;;;;;10.82;6.53;;;;;;;22.24;58.10;99346.42;1718021;82;21046;-62
2023/07/25 04:58:11;;;;;;;11.65;7.03;;;;;;;22.31;57.94;99341.30;1717962;83;21062;-62
2023/07/25 05:00:40;;;;;;;21.00;6.97;;;;;;;22.39;57.96;99340.62;1718054;83;21137;-63
2023/07/25 05:03:11;;;;;;;23.15;6.83;;;;;;;22.51;57.85;99340.73;1718169;83;21108;-66
2023/07/25 05:05:40;;;;;;;14.70;6.22;;;;;;;22.62;57.56;99336.65;1718099;83;21057;-64
2023/07/25 05:08:08;;;;;;;10.25;6.30;;;;;;;22.77;57.24;99330.28;1718304;83;21050;-64
2023/07/25 05:10:38;;;;;;;10.60;6.85;;;;;;;23.00;56.89;99325.73;1718350;83;21062;-65
2023/07/25 05:13:07;;;;;;;14.73;6.75;;;;;;;23.25;56.21;99324.45;1718245;83;21106;-64
2023/07/25 05:15:38;;;;;;;11.75;6.58;;;;;;;23.52;55.46;99323.69;1718393;82;21078;-62
2023/07/25 05:18:07;;;;;;;9.20;5.85;;;;;;;23.79;54.66;99322.90;1718264;83;21050;-71
2023/07/25 05:20:36;;;;;;;9.68;6.20;;;;;;;24.04;54.03;99332.72;1718225;83;21097;-64
2023/07/25 05:23:06;;;;;;;12.47;6.45;;;;;;;24.27;53.19;99326.11;1718076;83;21109;-64
2023/07/25 05:25:35;;;;;;;10.68;6.00;;;;;;;24.54;52.92;99331.37;1718403;83;21081;-64
2023/07/25 05:28:05;;;;;;;17.05;9.53;;;;;;;24.83;52.06;99326.78;1718249;83;21536;-65
2023/07/25 05:30:34;;;;;;;11.18;6.92;;;;;;;25.09;51.44;99320.81;1718039;83;21066;-65
2023/07/25 05:33:03;;;;;;;10.48;6.35;;;;;;;25.34;50.56;99308.09;1718339;83;21047;-64
2023/07/25 05:35:32;;;;;;;10.38;6.15;;;;;;;25.58;50.18;99307.16;1718068;83;21520;-64
2023/07/25 05:38:02;;;;;;;14.23;6.58;;;;;;;25.77;49.44;99308.91;1718467;83;21074;-64
2023/07/25 05:40:31;;;;;;;15.60;6.78;;;;;;;25.90;49.36;99303.17;1718392;83;21042;-64
2023/07/25 05:43:00;;;;;;;15.00;6.72;;;;;;;26.03;49.12;99302.00;1698371;83;21122;-65
2023/07/25 05:45:30;;;;;;;18.15;7.08;;;;;;;26.10;48.80;99293.92;1718009;83;21528;-64
2023/07/25 05:48:00;;;;;;;28.15;7.90;;;;;;;26.08;48.54;99296.23;1718280;83;21166;-65
2023/07/25 05:50:29;;;;;;;17.77;7.45;;;;;;;26.06;48.89;99293.75;1718011;83;21512;-65
2023/07/25 05:52:58;;;;;;;20.70;6.97;;;;;;;26.12;48.85;99289.63;1718236;83;21446;-64
2023/07/25 05:55:27;;;;;;;19.62;7.62;;;;;;;26.18;48.60;99288.32;1718240;83;21489;-65
2023/07/25 05:57:57;;;;;;;15.63;7.35;;;;;;;26.28;48.43;99286.34;1717751;82;21042;-65
2023/07/25 06:00:26;;;;;;;16.02;6.60;;;;;;;26.42;48.28;99289.28;1718313;83;21125;-66
2023/07/25 06:02:56;;;;;;;16.65;6.62;;;;;;;26.57;47.99;99287.95;1714190;83;21313;-66
2023/07/25 06:05:25;;;;;;;15.93;6.15;;;;;;;26.73;48.00;99286.91;1710977;84;21043;-65
2023/07/25 06:07:54;;;;;;;13.28;7.17;;;;;;;26.93;47.49;99290.43;1710688;84;21485;-66
2023/07/25 06:10:23;;;;;;;16.65;7.58;;;;;;;27.19;47.03;99284.78;1710632;84;21078;-65
2023/07/25 06:12:52;;;;;;;13.72;6.25;;;;;;;27.50;46.72;99286.52;1710654;83;21011;-64
2023/07/25 06:15:20;;;;;;;14.07;6.35;;;;;;;27.79;46.03;99285.17;1710921;84;21046;-64
2023/07/25 06:17:50;;;;;;;10.78;5.87;;;;;;;28.05;45.30;99285.88;1710763;84;21046;-65
2023/07/25 06:20:18;;;;;;;14.07;7.12;;;;;;;28.20;44.62;99277.99;1710840;83;21098;-66
2023/07/25 06:22:48;;;;;;;13.75;6.28;;;;;;;28.33;44.25;99275.53;1710946;83;21482;-65
2023/07/25 06:25:17;;;;;;;11.28;6.17;;;;;;;28.42;44.12;99272.05;1710683;84;21066;-64
2023/07/25 06:27:46;;;;;;;8.58;6.22;;;;;;;28.58;44.07;99274.48;1710659;83;21071;-65
2023/07/25 06:30:16;;;;;;;9.25;6.12;;;;;;;28.82;43.59;99270.16;1710588;84;21082;-64
2023/07/25 06:32:45;;;;;;;7.83;5.83;;;;;;;29.02;42.92;99267.32;1710721;84;21043;-65
2023/07/25 06:35:15;;;;;;;11.93;6.30;;;;;;;29.19;42.45;99262.66;1710689;84;21503;-66
2023/07/25 06:37:43;;;;;;;10.05;6.40;;;;;;;29.31;42.59;99264.95;1710689;84;21091;-65
2023/07/25 06:40:13;;;;;;;9.95;5.65;;;;;;;29.50;42.16;99257.95;1710580;84;21482;-65
2023/07/25 06:42:43;;;;;;;10.18;5.87;;;;;;;29.71;41.61;99255.02;1710862;84;21128;-65
2023/07/25 06:45:14;;;;;;;11.35;6.83;;;;;;;29.81;41.34;99251.71;1710708;83;21059;-65
2023/07/25 06:47:43;;;;;;;10.10;6.08;;;;;;;29.89;40.95;99247.94;1710848;84;21019;-65
2023/07/25 06:50:13;;;;;;;10.85;5.92;;;;;;;29.88;40.93;99243.47;1710707;84;21459;-64
2023/07/25 06:52:42;;;;;;;14.23;6.70;;;;;;;29.85;41.05;99239.94;1710849;84;21058;-64
2023/07/25 06:55:11;;;;;;;13.85;6.97;;;;;;;29.86;40.83;99241.00;1710848;84;21054;-66
2023/07/25 06:57:40;;;;;;;12.25;6.15;;;;;;;29.95;40.78;99241.73;1710799;84;21043;-65
2023/07/25 07:00:12;;;;;;;11.70;6.37;;;;;;;30.06;40.76;99235.03;1711035;84;21489;-65
2023/07/25 07:02:42;;;;;;;10.58;6.53;;;;;;;30.19;40.58;99228.77;1713108;83;21081;-66
2023/07/25 07:05:11;;;;;;;13.03;6.58;;;;;;;30.24;40.54;99232.75;1718237;83;21018;-66
2023/07/25 07:07:43;;;;;;;7.72;6.20;;;;;;;30.24;40.68;99224.28;1712663;83;21054;-64
2023/07/25 07:10:12;;;;;;;8.75;5.72;;;;;;;30.13;40.75;99225.95;1710702;84;21446;-64
2023/07/25 07:12:46;;;;;;;10.05;5.62;;;;;;;30.00;40.91;99227.95;1711050;84;21046;-65
2023/07/25 07:15:14;;;;;;;9.83;5.87;;;;;;;29.88;41.10;99224.52;1710346;84;21023;-67
2023/07/25 07:17:44;;;;;;;10.68;6.70;;;;;;;29.83;41.27;99216.30;1710894;84;21035;-66
2023/07/25 07:20:13;;;;;;;9.63;5.90;;;;;;;29.88;41.59;99211.81;1710618;84;21066;-65
2023/07/25 07:22:43;;;;;;;8.60;5.95;;;;;;;30.01;41.60;99204.77;1710871;84;21172;-65
2023/07/25 07:25:13;;;;;;;8.75;6.33;;;;;;;30.22;40.88;99206.86;1710849;84;21095;-64
2023/07/25 07:27:42;;;;;;;10.23;5.85;;;;;;;30.55;40.37;99203.79;1710822;83;21082;-67
2023/07/25 07:30:12;;;;;;;11.25;5.95;;;;;;;30.87;39.63;99197.09;1710557;83;21078;-64
2023/07/25 07:32:41;;;;;;;11.45;5.60;;;;;;;31.11;39.27;99192.45;1710652;84;21080;-65
2023/07/25 07:35:10;;;;;;;10.98;6.05;;;;;;;31.34;38.51;99188.45;1710847;83;21074;-66
2023/07/25 07:37:40;;;;;;;10.45;5.62;;;;;;;31.45;37.86;99185.30;1710822;84;21122;-68
2023/07/25 07:40:09;;;;;;;12.35;5.80;;;;;;;31.50;37.34;99176.53;1710526;82;21102;-66
2023/07/25 07:42:38;;;;;;;9.55;6.12;;;;;;;31.58;37.15;99184.01;1710765;84;21039;-65
2023/07/25 07:45:09;;;;;;;8.70;5.87;;;;;;;31.69;36.72;99194.17;1691050;84;21110;-64
2023/07/25 07:47:38;;;;;;;9.70;6.30;;;;;;;31.81;36.09;99195.51;1710656;84;21050;-65
2023/07/25 07:50:08;;;;;;;9.88;6.53;;;;;;;31.82;36.19;99195.73;1710834;84;21058;-72
2023/07/25 07:52:40;;;;;;;10.20;6.22;;;;;;;31.78;36.60;99194.23;1710616;84;21086;-66
2023/07/25 07:55:11;;;;;;;10.45;5.92;;;;;;;31.73;37.07;99195.94;1710884;84;21094;-65
2023/07/25 07:57:43;;;;;;;9.33;6.20;;;;;;;31.73;37.39;99190.27;1692776;82;21109;-66
2023/07/25 08:00:14;;;;;;;9.20;6.20;;;;;;;31.73;37.62;99188.03;1698312;84;21110;-66
2023/07/25 08:02:43;;;;;;;12.68;6.62;;;;;;;31.69;37.65;99176.59;1691770;84;21488;-67
2023/07/25 08:05:12;;;;;;;8.68;5.92;;;;;;;31.69;38.09;99173.76;1673996;85;21064;-67
2023/07/25 08:07:41;;;;;;;15.25;7.90;;;;;;;31.77;38.01;99173.36;1710420;84;21098;-66
2023/07/25 08:10:10;;;;;;;10.05;6.17;;;;;;;31.81;37.98;99166.59;1709066;84;21018;-66
2023/07/25 08:12:39;;;;;;;8.70;6.28;;;;;;;31.77;38.02;99168.52;1708996;84;21039;-67
2023/07/25 08:15:09;;;;;;;9.80;6.05;;;;;;;31.69;37.68;99176.59;1669676;86;21051;-64
2023/07/25 08:17:38;;;;;;;7.30;6.25;;;;;;;31.60;38.10;99173.73;1655441;86;21488;-67
2023/07/25 08:20:08;;;;;;;10.58;6.70;;;;;;;31.52;38.58;99167.07;1658566;85;21047;-67
2023/07/25 08:22:37;;;;;;;10.63;5.90;;;;;;;31.52;38.73;99169.91;1659868;85;21488;-67
2023/07/25 08:25:07;;;;;;;8.88;6.75;;;;;;;31.62;38.74;99169.34;1660472;85;21047;-66
2023/07/25 08:27:36;;;;;;;8.35;6.47;;;;;;;31.74;38.39;99170.67;1659794;86;21071;-65
2023/07/25 08:30:07;;;;;;;17.10;10.45;;;;;;;31.88;37.83;99165.95;1660380;85;21079;-66
2023/07/25 08:32:36;;;;;;;9.70;6.10;;;;;;;32.05;37.58;99168.96;1641256;86;21087;-65
2023/07/25 08:35:06;;;;;;;9.73;6.62;;;;;;;32.21;36.97;99164.64;1655222;86;21051;-67
2023/07/25 08:37:34;;;;;;;9.18;5.97;;;;;;;32.34;36.72;99172.66;1706724;84;21119;-64
2023/07/25 08:40:04;;;;;;;9.75;5.67;;;;;;;32.51;36.45;99177.06;1672475;85;21039;-66
2023/07/25 08:42:34;;;;;;;10.13;6.60;;;;;;;32.61;36.33;99176.48;1672019;85;21036;-69
2023/07/25 08:45:03;;;;;;;9.50;6.30;;;;;;;32.72;36.56;99172.44;1672129;85;21518;-66
2023/07/25 08:47:34;;;;;;;9.28;7.15;;;;;;;32.94;36.34;99169.44;1653848;86;21087;-68
2023/07/25 08:50:07;;;;;;;11.08;7.00;;;;;;;33.14;35.42;99171.62;1672363;85;21258;-68
2023/07/25 08:52:36;;;;;;;9.85;6.40;;;;;;;33.25;35.45;99171.23;1672606;85;21547;-67
2023/07/25 08:55:07;;;;;;;7.55;6.20;;;;;;;33.40;34.80;99168.28;1672189;85;21051;-67
2023/07/25 08:57:35;;;;;;;10.98;6.60;;;;;;;33.53;34.42;99150.43;1672293;85;21077;-68
2023/07/25 09:00:07;;;;;;;9.33;6.50;;;;;;;33.64;34.00;99157.70;1672438;85;21023;-66
2023/07/25 09:02:36;;;;;;;7.92;6.28;;;;;;;33.58;33.68;99152.12;1672267;85;21549;-67
2023/07/25 09:05:06;;;;;;;14.98;7.62;;;;;;;33.42;34.24;99150.05;1672252;85;21129;-68
2023/07/25 09:07:34;;;;;;;9.25;6.40;;;;;;;33.31;34.49;99147.85;1679102;85;21178;-64
2023/07/25 09:10:05;;;;;;;9.38;6.25;;;;;;;33.22;35.00;99142.18;1718267;82;21464;-66
2023/07/25 09:12:34;;;;;;;14.65;6.80;;;;;;;33.19;35.30;99141.52;1694166;83;21033;-65
2023/07/25 09:15:03;;;;;;;9.73;6.83;;;;;;;33.19;35.63;99142.94;1721383;82;21057;-64
2023/07/25 09:17:32;;;;;;;10.13;6.42;;;;;;;33.21;35.89;99140.54;1713244;84;21022;-67
2023/07/25 09:20:01;;;;;;;9.58;6.47;;;;;;;33.26;35.39;99145.30;1713209;82;21050;-66
2023/07/25 09:22:32;;;;;;;11.05;6.30;;;;;;;33.21;35.21;99136.28;1713264;82;21061;-66
2023/07/25 09:25:01;;;;;;;11.18;6.72;;;;;;;33.13;35.59;99132.47;1713032;83;20998;-67
2023/07/25 09:27:30;;;;;;;10.58;6.80;;;;;;;33.12;35.63;99129.41;1705240;84;21118;-66
2023/07/25 09:29:59;;;;;;;8.70;6.47;;;;;;;33.09;35.41;99125.91;1649780;85;21114;-67
2023/07/25 09:32:28;;;;;;;9.43;6.30;;;;;;;32.98;35.10;99117.22;1678484;85;21504;-64
2023/07/25 09:35:05;;;;;;;8.98;6.53;;;;;;;32.78;35.19;99117.87;1678510;84;21072;-65
2023/07/25 09:37:33;;;;;;;17.50;7.03;;;;;;;32.63;35.27;99115.13;1678669;84;21045;-66
2023/07/25 09:40:02;;;;;;;10.28;6.85;;;;;;;32.48;35.70;99111.98;1678531;85;21020;-66
2023/07/25 09:42:32;;;;;;;9.03;6.62;;;;;;;32.41;35.75;99111.84;1678375;85;21286;-67
2023/07/25 09:45:01;;;;;;;7.58;6.10;;;;;;;32.37;35.72;99109.54;1678428;84;21055;-66
2023/07/25 09:47:30;;;;;;;9.20;6.17;;;;;;;32.28;35.69;99104.70;1678542;84;21533;-68
2023/07/25 09:49:58;;;;;;;8.75;6.85;;;;;;;32.24;35.76;99109.48;1678502;84;21080;-65
2023/07/25 09:52:35;;;;;;;9.95;6.55;;;;;;;32.20;35.55;99099.23;1678509;85;21007;-66
2023/07/25 09:55:06;;;;;;;9.95;7.25;;;;;;;32.17;35.75;99103.63;1655451;85;21087;-65
2023/07/25 09:57:36;;;;;;;12.15;6.53;;;;;;;32.14;35.60;99108.63;1678400;85;22037;-66
2023/07/25 10:00:07;;;;;;;9.93;6.95;;;;;;;32.15;35.58;99098.94;1678446;85;21055;-65
2023/07/25 10:02:36;;;;;;;13.18;6.65;;;;;;;32.17;35.39;99107.88;1678540;84;21083;-67
2023/07/25 10:05:05;;;;;;;11.05;7.50;;;;;;;32.13;35.48;99101.32;1671726;84;21111;-66
2023/07/25 10:07:34;;;;;;;10.03;6.50;;;;;;;32.10;35.70;99097.22;1647660;86;21107;-65
2023/07/25 10:10:05;;;;;;;9.35;6.37;;;;;;;32.10;35.42;99097.81;1646262;86;21016;-67
2023/07/25 10:12:34;;;;;;;10.85;6.35;;;;;;;32.11;35.79;99086.11;1648787;86;21067;-63
2023/07/25 10:15:04;;;;;;;9.63;6.62;;;;;;;32.15;35.59;99091.84;1648612;86;21149;-65
2023/07/25 10:17:33;;;;;;;12.35;6.72;;;;;;;32.16;35.75;99083.56;1648740;86;21079;-65
2023/07/25 10:20:05;;;;;;;9.70;5.92;;;;;;;32.23;35.75;99076.63;1648758;86;21032;-66
2023/07/25 10:22:40;;;;;;;11.15;6.47;;;;;;;32.32;35.86;99086.34;1628744;87;21480;-65
2023/07/25 10:25:28;;;;;;;12.13;6.90;;;;;;;32.34;35.86;99098.95;1627894;87;21100;-65
2023/07/25 10:27:58;;;;;;;9.25;6.40;;;;;;;32.37;35.53;99091.70;1648940;86;21056;-65
2023/07/25 10:30:31;;;;;;;9.45;7.15;;;;;;;32.37;34.95;99092.53;1648475;86;21067;-65
2023/07/25 10:33:02;;;;;;;9.50;6.70;;;;;;;32.32;35.36;99086.34;1648581;86;21180;-66
2023/07/25 10:35:55;;;;;;;9.35;6.33;;;;;;;32.26;35.93;99091.50;1644565;86;21092;-66
2023/07/25 10:38:34;;;;;;;9.68;6.70;;;;;;;32.27;36.08;99086.05;1644595;87;21024;-63
2023/07/25 10:41:16;;;;;;;12.15;7.00;;;;;;;32.29;36.28;99083.66;1644601;87;21068;-64
2023/07/25 10:43:55;;;;;;;13.22;7.17;;;;;;;32.32;36.30;99079.25;1644429;87;21067;-64
2023/07/25 10:46:28;;;;;;;9.85;6.78;;;;;;;32.32;36.57;99077.84;1648147;86;21052;-66
2023/07/25 10:48:59;;;;;;;9.28;6.47;;;;;;;32.31;36.17;99071.95;1629048;87;21221;-64
2023/07/25 10:51:52;;;;;;;10.40;7.10;;;;;;;32.23;36.35;99065.28;1648575;86;21690;-65
2023/07/25 10:54:23;;;;;;;10.80;7.00;;;;;;;32.18;36.67;99063.35;1646122;87;21072;-68
2023/07/25 10:57:16;;;;;;;9.70;7.12;;;;;;;32.18;36.80;99063.35;1648753;86;21083;-70
2023/07/25 11:00:10;;;;;;;11.03;7.25;;;;;;;32.13;36.91;99048.89;1649073;86;21079;-66
2023/07/25 11:02:42;;;;;;;12.13;7.37;;;;;;;32.10;37.16;99049.64;1647536;87;21020;-66
2023/07/25 11:05:20;;;;;;;9.83;7.03;;;;;;;32.09;37.35;99052.25;1648391;87;21549;-68
2023/07/25 11:07:53;;;;;;;11.97;7.67;;;;;;;32.08;37.46;99036.44;1654562;86;21039;-67
2023/07/25 11:10:27;;;;;;;10.70;7.58;;;;;;;32.09;37.41;99042.33;1661423;85;21103;-68
2023/07/25 11:13:03;;;;;;;12.15;8.40;;;;;;;32.05;37.08;99037.19;1661426;85;21119;-67
2023/07/25 11:15:35;;;;;;;13.38;7.78;;;;;;;31.97;37.44;99024.07;1661501;86;21479;-67
2023/07/25 11:18:06;;;;;;;11.03;7.80;;;;;;;31.89;37.90;99032.20;1660873;86;21107;-66
2023/07/25 11:20:35;;;;;;;15.63;8.00;;;;;;;31.85;38.03;99021.59;1661569;86;21003;-65
2023/07/25 11:23:04;;;;;;;11.60;7.60;;;;;;;31.87;38.31;99025.50;1661382;85;21059;-68
2023/07/25 11:25:34;;;;;;;11.95;8.10;;;;;;;31.89;38.33;99020.88;1661382;86;21059;-67
2023/07/25 11:28:03;;;;;;;14.45;7.97;;;;;;;31.85;38.66;99010.25;1661500;85;21071;-68
2023/07/25 11:30:33;;;;;;;11.45;8.08;;;;;;;31.84;38.95;99012.05;1661559;85;21087;-64
2023/07/25 11:33:02;;;;;;;10.75;7.90;;;;;;;31.80;39.29;99013.98;1661666;85;21036;-64
2023/07/25 11:35:31;;;;;;;11.60;8.03;;;;;;;31.75;39.39;99013.69;1661453;85;21075;-66
2023/07/25 11:38:02;;;;;;;13.68;8.53;;;;;;;31.69;39.76;99017.16;1661731;85;21106;-66
2023/07/25 11:40:32;;;;;;;13.53;8.58;;;;;;;31.63;39.89;99016.64;1661634;85;21087;-66
2023/07/25 11:43:00;;;;;;;16.02;9.30;;;;;;;31.60;40.30;99015.97;1661467;85;21071;-65